sensor_id;sensor_type;location;lat;lon;timestamp;P1;durP1;ratioP1;P2;durP2;ratioP2
76447;SDS011;65284;51.040;13.722;2023-04-08T00:00:52;23.80;;;11.05;;
76447;SDS011;65284;51.040;13.722;2023-04-08T00:03:19;27.80;;;11.82;;
76447;SDS011;65284;51.040;13.722;2023-04-08T00:05:46;24.25;;;11.80;;
76447;SDS011;65284;51.040;13.722;2023-04-08T00:08:12;25.10;;;11.27;;
76447;SDS011;65284;51.040;13.722;2023-04-08T00:10:38;25.77;;;12.15;;
76447;SDS011;65284;51.040;13.722;2023-04-08T00:13:05;23.90;;;10.93;;
76447;SDS011;65284;51.040;13.722;2023-04-08T00:15:31;24.98;;;11.88;;
76447;SDS011;65284;51.040;13.722;2023-04-08T00:17:58;24.90;;;11.38;;
76447;SDS011;65284;51.040;13.722;2023-04-08T00:20:25;28.20;;;11.82;;
76447;SDS011;65284;51.040;13.722;2023-04-08T00:22:51;26.85;;;11.57;;
76447;SDS011;65284;51.040;13.722;2023-04-08T00:25:18;27.13;;;11.38;;
76447;SDS011;65284;51.040;13.722;2023-04-08T00:27:44;27.45;;;12.10;;
76447;SDS011;65284;51.040;13.722;2023-04-08T00:30:11;25.27;;;10.57;;
76447;SDS011;65284;51.040;13.722;2023-04-08T00:32:37;25.88;;;11.32;;
76447;SDS011;65284;51.040;13.722;2023-04-08T00:35:04;26.55;;;10.73;;
76447;SDS011;65284;51.040;13.722;2023-04-08T00:37:30;27.88;;;10.73;;
76447;SDS011;65284;51.040;13.722;2023-04-08T00:39:57;26.52;;;10.48;;
76447;SDS011;65284;51.040;13.722;2023-04-08T00:42:23;23.60;;;9.82;;
76447;SDS011;65284;51.040;13.722;2023-04-08T00:44:50;24.40;;;9.80;;
76447;SDS011;65284;51.040;13.722;2023-04-08T00:47:16;24.60;;;9.55;;
76447;SDS011;65284;51.040;13.722;2023-04-08T00:49:44;24.83;;;9.30;;
76447;SDS011;65284;51.040;13.722;2023-04-08T00:52:11;24.30;;;9.68;;
76447;SDS011;65284;51.040;13.722;2023-04-08T00:54:37;23.75;;;8.68;;
76447;SDS011;65284;51.040;13.722;2023-04-08T00:57:04;21.98;;;9.30;;
76447;SDS011;65284;51.040;13.722;2023-04-08T00:59:31;23.92;;;9.38;;
76447;SDS011;65284;51.040;13.722;2023-04-08T01:02:03;22.90;;;9.23;;
76447;SDS011;65284;51.040;13.722;2023-04-08T01:04:47;24.23;;;9.48;;
76447;SDS011;65284;51.040;13.722;2023-04-08T01:07:21;26.77;;;9.40;;
76447;SDS011;65284;51.040;13.722;2023-04-08T01:09:53;23.60;;;8.88;;
76447;SDS011;65284;51.040;13.722;2023-04-08T01:12:25;24.42;;;9.77;;
76447;SDS011;65284;51.040;13.722;2023-04-08T01:14:57;24.23;;;9.05;;
76447;SDS011;65284;51.040;13.722;2023-04-08T01:17:27;25.15;;;8.65;;
76447;SDS011;65284;51.040;13.722;2023-04-08T01:19:55;24.67;;;8.35;;
76447;SDS011;65284;51.040;13.722;2023-04-08T01:24:56;22.67;;;8.32;;
76447;SDS011;65284;51.040;13.722;2023-04-08T01:27:27;23.65;;;8.38;;
76447;SDS011;65284;51.040;13.722;2023-04-08T01:29:57;22.77;;;8.68;;
76447;SDS011;65284;51.040;13.722;2023-04-08T01:32:25;27.85;;;9.15;;
76447;SDS011;65284;51.040;13.722;2023-04-08T01:34:53;23.55;;;8.60;;
76447;SDS011;65284;51.040;13.722;2023-04-08T01:37:20;24.75;;;9.05;;
76447;SDS011;65284;51.040;13.722;2023-04-08T01:39:47;23.63;;;8.63;;
76447;SDS011;65284;51.040;13.722;2023-04-08T01:42:15;25.70;;;9.18;;
76447;SDS011;65284;51.040;13.722;2023-04-08T01:44:41;24.73;;;9.00;;
76447;SDS011;65284;51.040;13.722;2023-04-08T01:47:09;23.08;;;7.95;;
76447;SDS011;65284;51.040;13.722;2023-04-08T01:49:37;25.08;;;9.10;;
76447;SDS011;65284;51.040;13.722;2023-04-08T01:52:04;23.80;;;8.95;;
76447;SDS011;65284;51.040;13.722;2023-04-08T01:54:34;25.17;;;8.50;;
76447;SDS011;65284;51.040;13.722;2023-04-08T01:57:01;24.85;;;8.50;;
76447;SDS011;65284;51.040;13.722;2023-04-08T01:59:34;21.88;;;8.23;;
76447;SDS011;65284;51.040;13.722;2023-04-08T02:02:04;26.33;;;8.70;;
76447;SDS011;65284;51.040;13.722;2023-04-08T02:04:34;25.00;;;8.95;;
76447;SDS011;65284;51.040;13.722;2023-04-08T02:07:02;23.92;;;8.65;;
76447;SDS011;65284;51.040;13.722;2023-04-08T02:09:29;24.25;;;8.48;;
76447;SDS011;65284;51.040;13.722;2023-04-08T02:11:56;24.00;;;8.57;;
76447;SDS011;65284;51.040;13.722;2023-04-08T02:14:22;22.75;;;8.30;;
76447;SDS011;65284;51.040;13.722;2023-04-08T02:16:52;26.60;;;8.50;;
76447;SDS011;65284;51.040;13.722;2023-04-08T02:19:23;23.70;;;8.02;;
76447;SDS011;65284;51.040;13.722;2023-04-08T02:21:56;24.13;;;8.73;;
76447;SDS011;65284;51.040;13.722;2023-04-08T02:24:30;24.23;;;8.40;;
76447;SDS011;65284;51.040;13.722;2023-04-08T02:26:58;26.75;;;8.43;;
76447;SDS011;65284;51.040;13.722;2023-04-08T02:29:26;25.33;;;8.63;;
76447;SDS011;65284;51.040;13.722;2023-04-08T02:31:56;25.88;;;8.10;;
76447;SDS011;65284;51.040;13.722;2023-04-08T02:34:23;19.65;;;8.02;;
76447;SDS011;65284;51.040;13.722;2023-04-08T02:36:50;23.33;;;8.48;;
76447;SDS011;65284;51.040;13.722;2023-04-08T02:39:17;24.35;;;8.18;;
76447;SDS011;65284;51.040;13.722;2023-04-08T02:41:43;23.42;;;7.80;;
76447;SDS011;65284;51.040;13.722;2023-04-08T02:44:10;22.73;;;7.90;;
76447;SDS011;65284;51.040;13.722;2023-04-08T02:46:36;20.80;;;7.38;;
76447;SDS011;65284;51.040;13.722;2023-04-08T02:49:03;21.63;;;7.13;;
76447;SDS011;65284;51.040;13.722;2023-04-08T02:51:29;19.60;;;7.03;;
76447;SDS011;65284;51.040;13.722;2023-04-08T02:53:57;20.42;;;7.22;;
76447;SDS011;65284;51.040;13.722;2023-04-08T02:56:23;19.90;;;6.43;;
76447;SDS011;65284;51.040;13.722;2023-04-08T02:58:50;20.88;;;7.10;;
76447;SDS011;65284;51.040;13.722;2023-04-08T03:01:17;22.30;;;7.22;;
76447;SDS011;65284;51.040;13.722;2023-04-08T03:03:43;20.45;;;6.55;;
76447;SDS011;65284;51.040;13.722;2023-04-08T03:06:10;19.30;;;6.93;;
76447;SDS011;65284;51.040;13.722;2023-04-08T03:08:36;19.05;;;6.90;;
76447;SDS011;65284;51.040;13.722;2023-04-08T03:11:03;19.98;;;6.97;;
76447;SDS011;65284;51.040;13.722;2023-04-08T03:13:29;20.52;;;7.10;;
76447;SDS011;65284;51.040;13.722;2023-04-08T03:15:56;20.48;;;6.60;;
76447;SDS011;65284;51.040;13.722;2023-04-08T03:18:23;21.05;;;6.68;;
76447;SDS011;65284;51.040;13.722;2023-04-08T03:20:50;19.90;;;6.70;;
76447;SDS011;65284;51.040;13.722;2023-04-08T03:23:16;22.08;;;7.20;;
76447;SDS011;65284;51.040;13.722;2023-04-08T03:25:42;20.45;;;6.50;;
76447;SDS011;65284;51.040;13.722;2023-04-08T03:28:09;18.65;;;7.40;;
76447;SDS011;65284;51.040;13.722;2023-04-08T03:30:36;18.98;;;6.45;;
76447;SDS011;65284;51.040;13.722;2023-04-08T03:33:02;17.67;;;6.45;;
76447;SDS011;65284;51.040;13.722;2023-04-08T03:35:33;19.00;;;6.45;;
76447;SDS011;65284;51.040;13.722;2023-04-08T03:37:59;20.20;;;6.72;;
76447;SDS011;65284;51.040;13.722;2023-04-08T03:40:26;17.75;;;5.90;;
76447;SDS011;65284;51.040;13.722;2023-04-08T03:42:52;17.98;;;6.28;;
76447;SDS011;65284;51.040;13.722;2023-04-08T03:45:19;16.60;;;6.53;;
76447;SDS011;65284;51.040;13.722;2023-04-08T03:47:45;15.55;;;5.72;;
76447;SDS011;65284;51.040;13.722;2023-04-08T03:50:12;18.33;;;5.85;;
76447;SDS011;65284;51.040;13.722;2023-04-08T03:52:38;16.30;;;6.03;;
76447;SDS011;65284;51.040;13.722;2023-04-08T03:55:04;18.70;;;6.13;;
76447;SDS011;65284;51.040;13.722;2023-04-08T03:57:31;17.90;;;6.10;;
76447;SDS011;65284;51.040;13.722;2023-04-08T03:59:57;15.20;;;5.20;;
76447;SDS011;65284;51.040;13.722;2023-04-08T04:02:24;15.27;;;5.25;;
76447;SDS011;65284;51.040;13.722;2023-04-08T04:04:51;15.52;;;5.55;;
76447;SDS011;65284;51.040;13.722;2023-04-08T04:07:17;14.48;;;5.13;;
76447;SDS011;65284;51.040;13.722;2023-04-08T04:09:44;15.63;;;5.25;;
76447;SDS011;65284;51.040;13.722;2023-04-08T04:12:10;13.38;;;5.00;;
76447;SDS011;65284;51.040;13.722;2023-04-08T04:14:36;17.27;;;5.32;;
76447;SDS011;65284;51.040;13.722;2023-04-08T04:17:03;15.75;;;5.32;;
76447;SDS011;65284;51.040;13.722;2023-04-08T04:19:29;17.02;;;6.05;;
76447;SDS011;65284;51.040;13.722;2023-04-08T04:21:56;17.35;;;5.85;;
76447;SDS011;65284;51.040;13.722;2023-04-08T04:24:23;14.68;;;5.47;;
76447;SDS011;65284;51.040;13.722;2023-04-08T04:26:49;14.70;;;5.32;;
76447;SDS011;65284;51.040;13.722;2023-04-08T04:29:16;14.02;;;5.50;;
76447;SDS011;65284;51.040;13.722;2023-04-08T04:31:42;14.57;;;5.13;;
76447;SDS011;65284;51.040;13.722;2023-04-08T04:34:09;16.40;;;5.88;;
76447;SDS011;65284;51.040;13.722;2023-04-08T04:36:35;15.70;;;5.80;;
76447;SDS011;65284;51.040;13.722;2023-04-08T04:39:01;14.25;;;5.22;;
76447;SDS011;65284;51.040;13.722;2023-04-08T04:41:28;18.13;;;6.07;;
76447;SDS011;65284;51.040;13.722;2023-04-08T04:43:55;15.25;;;5.35;;
76447;SDS011;65284;51.040;13.722;2023-04-08T04:46:21;16.65;;;5.72;;
76447;SDS011;65284;51.040;13.722;2023-04-08T04:48:48;14.85;;;5.78;;
76447;SDS011;65284;51.040;13.722;2023-04-08T04:51:15;17.42;;;6.10;;
76447;SDS011;65284;51.040;13.722;2023-04-08T04:53:41;18.50;;;6.05;;
76447;SDS011;65284;51.040;13.722;2023-04-08T04:56:07;17.42;;;5.38;;
76447;SDS011;65284;51.040;13.722;2023-04-08T04:58:34;16.35;;;5.80;;
76447;SDS011;65284;51.040;13.722;2023-04-08T05:01:00;21.55;;;5.80;;
76447;SDS011;65284;51.040;13.722;2023-04-08T05:03:27;19.60;;;6.60;;
76447;SDS011;65284;51.040;13.722;2023-04-08T05:05:53;20.15;;;6.25;;
76447;SDS011;65284;51.040;13.722;2023-04-08T05:08:20;17.65;;;5.65;;
76447;SDS011;65284;51.040;13.722;2023-04-08T05:10:47;16.25;;;5.93;;
76447;SDS011;65284;51.040;13.722;2023-04-08T05:13:16;16.10;;;5.78;;
76447;SDS011;65284;51.040;13.722;2023-04-08T05:15:45;16.50;;;6.03;;
76447;SDS011;65284;51.040;13.722;2023-04-08T05:18:12;17.63;;;5.50;;
76447;SDS011;65284;51.040;13.722;2023-04-08T05:20:38;14.50;;;5.38;;
76447;SDS011;65284;51.040;13.722;2023-04-08T05:23:05;16.83;;;5.70;;
76447;SDS011;65284;51.040;13.722;2023-04-08T05:25:32;15.38;;;5.35;;
76447;SDS011;65284;51.040;13.722;2023-04-08T05:27:59;14.07;;;5.13;;
76447;SDS011;65284;51.040;13.722;2023-04-08T05:30:25;15.30;;;5.28;;
76447;SDS011;65284;51.040;13.722;2023-04-08T05:32:52;13.88;;;5.32;;
76447;SDS011;65284;51.040;13.722;2023-04-08T05:35:18;16.40;;;5.55;;
76447;SDS011;65284;51.040;13.722;2023-04-08T05:37:45;15.68;;;5.32;;
76447;SDS011;65284;51.040;13.722;2023-04-08T05:40:12;14.60;;;5.30;;
76447;SDS011;65284;51.040;13.722;2023-04-08T05:42:38;13.13;;;5.40;;
76447;SDS011;65284;51.040;13.722;2023-04-08T05:45:05;13.48;;;5.55;;
76447;SDS011;65284;51.040;13.722;2023-04-08T05:47:32;15.88;;;5.60;;
76447;SDS011;65284;51.040;13.722;2023-04-08T05:49:58;16.42;;;5.82;;
76447;SDS011;65284;51.040;13.722;2023-04-08T05:52:24;16.67;;;5.93;;
76447;SDS011;65284;51.040;13.722;2023-04-08T05:54:51;15.32;;;5.32;;
76447;SDS011;65284;51.040;13.722;2023-04-08T05:57:17;17.67;;;5.45;;
76447;SDS011;65284;51.040;13.722;2023-04-08T05:59:44;17.88;;;5.97;;
76447;SDS011;65284;51.040;13.722;2023-04-08T06:02:11;16.45;;;5.97;;
76447;SDS011;65284;51.040;13.722;2023-04-08T06:04:37;15.55;;;5.45;;
76447;SDS011;65284;51.040;13.722;2023-04-08T06:07:04;16.48;;;5.68;;
76447;SDS011;65284;51.040;13.722;2023-04-08T06:09:33;16.38;;;6.50;;
76447;SDS011;65284;51.040;13.722;2023-04-08T06:12:00;15.88;;;6.53;;
76447;SDS011;65284;51.040;13.722;2023-04-08T06:14:27;18.80;;;6.80;;
76447;SDS011;65284;51.040;13.722;2023-04-08T06:16:53;18.52;;;6.30;;
76447;SDS011;65284;51.040;13.722;2023-04-08T06:19:22;20.08;;;7.00;;
76447;SDS011;65284;51.040;13.722;2023-04-08T06:21:49;17.52;;;6.63;;
76447;SDS011;65284;51.040;13.722;2023-04-08T06:24:16;19.27;;;6.65;;
76447;SDS011;65284;51.040;13.722;2023-04-08T06:26:42;19.73;;;7.03;;
76447;SDS011;65284;51.040;13.722;2023-04-08T06:29:09;21.85;;;7.63;;
76447;SDS011;65284;51.040;13.722;2023-04-08T06:31:36;21.67;;;7.30;;
76447;SDS011;65284;51.040;13.722;2023-04-08T06:34:03;21.15;;;7.70;;
76447;SDS011;65284;51.040;13.722;2023-04-08T06:36:29;22.65;;;7.40;;
76447;SDS011;65284;51.040;13.722;2023-04-08T06:38:56;21.85;;;8.73;;
76447;SDS011;65284;51.040;13.722;2023-04-08T06:41:22;70.93;;;29.63;;
76447;SDS011;65284;51.040;13.722;2023-04-08T06:43:49;30.05;;;11.80;;
76447;SDS011;65284;51.040;13.722;2023-04-08T06:46:15;28.88;;;9.63;;
76447;SDS011;65284;51.040;13.722;2023-04-08T06:48:42;25.45;;;9.30;;
76447;SDS011;65284;51.040;13.722;2023-04-08T06:51:08;28.15;;;9.77;;
76447;SDS011;65284;51.040;13.722;2023-04-08T06:53:35;23.38;;;9.05;;
76447;SDS011;65284;51.040;13.722;2023-04-08T06:56:01;26.90;;;9.57;;
76447;SDS011;65284;51.040;13.722;2023-04-08T06:58:28;25.33;;;9.20;;
76447;SDS011;65284;51.040;13.722;2023-04-08T07:00:56;25.55;;;10.13;;
76447;SDS011;65284;51.040;13.722;2023-04-08T07:03:24;28.02;;;9.90;;
76447;SDS011;65284;51.040;13.722;2023-04-08T07:05:52;26.83;;;9.75;;
76447;SDS011;65284;51.040;13.722;2023-04-08T07:08:18;28.27;;;9.85;;
76447;SDS011;65284;51.040;13.722;2023-04-08T07:10:45;28.50;;;10.32;;
76447;SDS011;65284;51.040;13.722;2023-04-08T07:13:11;25.48;;;10.45;;
76447;SDS011;65284;51.040;13.722;2023-04-08T07:15:38;25.60;;;10.15;;
76447;SDS011;65284;51.040;13.722;2023-04-08T07:18:04;26.25;;;10.18;;
76447;SDS011;65284;51.040;13.722;2023-04-08T07:20:31;24.58;;;10.02;;
76447;SDS011;65284;51.040;13.722;2023-04-08T07:22:57;30.52;;;12.60;;
76447;SDS011;65284;51.040;13.722;2023-04-08T07:25:23;25.27;;;10.38;;
76447;SDS011;65284;51.040;13.722;2023-04-08T07:27:50;23.45;;;9.75;;
76447;SDS011;65284;51.040;13.722;2023-04-08T07:30:18;23.02;;;10.10;;
76447;SDS011;65284;51.040;13.722;2023-04-08T07:32:44;22.92;;;10.13;;
76447;SDS011;65284;51.040;13.722;2023-04-08T07:35:11;24.85;;;9.93;;
76447;SDS011;65284;51.040;13.722;2023-04-08T07:37:37;27.05;;;11.02;;
76447;SDS011;65284;51.040;13.722;2023-04-08T07:40:04;24.63;;;10.32;;
76447;SDS011;65284;51.040;13.722;2023-04-08T07:42:31;31.20;;;13.32;;
76447;SDS011;65284;51.040;13.722;2023-04-08T07:44:57;27.27;;;12.50;;
76447;SDS011;65284;51.040;13.722;2023-04-08T07:47:24;22.65;;;9.63;;
76447;SDS011;65284;51.040;13.722;2023-04-08T07:49:50;23.45;;;10.25;;
76447;SDS011;65284;51.040;13.722;2023-04-08T07:52:17;24.00;;;10.38;;
76447;SDS011;65284;51.040;13.722;2023-04-08T07:54:44;21.45;;;9.40;;
76447;SDS011;65284;51.040;13.722;2023-04-08T07:57:10;17.48;;;7.82;;
76447;SDS011;65284;51.040;13.722;2023-04-08T07:59:37;14.18;;;6.70;;
76447;SDS011;65284;51.040;13.722;2023-04-08T08:02:03;15.13;;;6.75;;
76447;SDS011;65284;51.040;13.722;2023-04-08T08:04:30;15.02;;;6.80;;
76447;SDS011;65284;51.040;13.722;2023-04-08T08:06:58;13.52;;;6.57;;
76447;SDS011;65284;51.040;13.722;2023-04-08T08:09:24;14.93;;;6.93;;
76447;SDS011;65284;51.040;13.722;2023-04-08T08:11:51;15.95;;;7.05;;
76447;SDS011;65284;51.040;13.722;2023-04-08T08:14:17;13.90;;;6.45;;
76447;SDS011;65284;51.040;13.722;2023-04-08T08:16:44;13.75;;;6.03;;
76447;SDS011;65284;51.040;13.722;2023-04-08T08:19:10;12.68;;;5.68;;
76447;SDS011;65284;51.040;13.722;2023-04-08T08:21:38;11.38;;;5.60;;
76447;SDS011;65284;51.040;13.722;2023-04-08T08:24:05;13.45;;;6.35;;
76447;SDS011;65284;51.040;13.722;2023-04-08T08:26:35;21.00;;;9.63;;
76447;SDS011;65284;51.040;13.722;2023-04-08T08:29:04;49.30;;;22.10;;
76447;SDS011;65284;51.040;13.722;2023-04-08T08:31:33;13.10;;;5.90;;
76447;SDS011;65284;51.040;13.722;2023-04-08T08:34:00;10.48;;;5.38;;
76447;SDS011;65284;51.040;13.722;2023-04-08T08:36:27;11.88;;;6.03;;
76447;SDS011;65284;51.040;13.722;2023-04-08T08:38:53;12.07;;;6.05;;
76447;SDS011;65284;51.040;13.722;2023-04-08T08:41:20;11.82;;;5.72;;
76447;SDS011;65284;51.040;13.722;2023-04-08T08:43:46;11.90;;;5.55;;
76447;SDS011;65284;51.040;13.722;2023-04-08T08:46:14;12.45;;;6.45;;
76447;SDS011;65284;51.040;13.722;2023-04-08T08:48:42;12.98;;;6.10;;
76447;SDS011;65284;51.040;13.722;2023-04-08T08:51:10;12.35;;;6.07;;
76447;SDS011;65284;51.040;13.722;2023-04-08T08:53:37;12.88;;;6.13;;
76447;SDS011;65284;51.040;13.722;2023-04-08T08:56:04;12.77;;;6.22;;
76447;SDS011;65284;51.040;13.722;2023-04-08T08:58:36;10.65;;;5.45;;
76447;SDS011;65284;51.040;13.722;2023-04-08T09:06:34;12.30;;;6.00;;
76447;SDS011;65284;51.040;13.722;2023-04-08T09:09:02;12.30;;;6.18;;
76447;SDS011;65284;51.040;13.722;2023-04-08T09:11:31;12.93;;;7.00;;
76447;SDS011;65284;51.040;13.722;2023-04-08T09:13:58;13.18;;;6.18;;
76447;SDS011;65284;51.040;13.722;2023-04-08T09:16:24;14.55;;;6.80;;
76447;SDS011;65284;51.040;13.722;2023-04-08T09:18:51;13.93;;;6.70;;
76447;SDS011;65284;51.040;13.722;2023-04-08T09:21:18;13.40;;;7.03;;
76447;SDS011;65284;51.040;13.722;2023-04-08T09:23:49;14.05;;;6.47;;
76447;SDS011;65284;51.040;13.722;2023-04-08T09:26:18;14.52;;;6.70;;
76447;SDS011;65284;51.040;13.722;2023-04-08T09:28:59;12.88;;;6.20;;
76447;SDS011;65284;51.040;13.722;2023-04-08T09:31:43;13.63;;;6.40;;
76447;SDS011;65284;51.040;13.722;2023-04-08T09:34:13;13.88;;;6.68;;
76447;SDS011;65284;51.040;13.722;2023-04-08T09:36:41;14.05;;;7.15;;
76447;SDS011;65284;51.040;13.722;2023-04-08T09:39:09;18.42;;;8.60;;
76447;SDS011;65284;51.040;13.722;2023-04-08T09:41:36;17.27;;;8.20;;
76447;SDS011;65284;51.040;13.722;2023-04-08T09:44:05;15.05;;;7.05;;
76447;SDS011;65284;51.040;13.722;2023-04-08T09:55:02;14.68;;;6.60;;
76447;SDS011;65284;51.040;13.722;2023-04-08T09:57:33;13.32;;;6.88;;
76447;SDS011;65284;51.040;13.722;2023-04-08T10:00:17;12.90;;;6.47;;
76447;SDS011;65284;51.040;13.722;2023-04-08T10:02:46;14.52;;;6.63;;
76447;SDS011;65284;51.040;13.722;2023-04-08T10:05:34;14.32;;;6.72;;
76447;SDS011;65284;51.040;13.722;2023-04-08T10:08:03;13.80;;;6.80;;
76447;SDS011;65284;51.040;13.722;2023-04-08T10:10:33;14.02;;;6.90;;
76447;SDS011;65284;51.040;13.722;2023-04-08T10:13:02;16.73;;;7.40;;
76447;SDS011;65284;51.040;13.722;2023-04-08T10:15:30;16.58;;;7.53;;
76447;SDS011;65284;51.040;13.722;2023-04-08T10:23:00;16.02;;;7.25;;
76447;SDS011;65284;51.040;13.722;2023-04-08T10:25:34;14.50;;;7.15;;
76447;SDS011;65284;51.040;13.722;2023-04-08T10:30:43;15.32;;;7.20;;
76447;SDS011;65284;51.040;13.722;2023-04-08T10:33:18;14.90;;;6.85;;
76447;SDS011;65284;51.040;13.722;2023-04-08T10:35:48;15.25;;;7.20;;
76447;SDS011;65284;51.040;13.722;2023-04-08T10:38:24;16.17;;;7.30;;
76447;SDS011;65284;51.040;13.722;2023-04-08T10:40:51;12.93;;;6.60;;
76447;SDS011;65284;51.040;13.722;2023-04-08T10:43:19;15.27;;;6.68;;
76447;SDS011;65284;51.040;13.722;2023-04-08T10:45:45;15.55;;;7.00;;
76447;SDS011;65284;51.040;13.722;2023-04-08T10:48:18;13.63;;;6.22;;
76447;SDS011;65284;51.040;13.722;2023-04-08T10:50:54;13.85;;;6.40;;
76447;SDS011;65284;51.040;13.722;2023-04-08T10:53:25;12.32;;;6.13;;
76447;SDS011;65284;51.040;13.722;2023-04-08T10:55:53;11.98;;;5.70;;
76447;SDS011;65284;51.040;13.722;2023-04-08T10:58:30;14.07;;;6.40;;
76447;SDS011;65284;51.040;13.722;2023-04-08T11:01:01;12.13;;;5.88;;
76447;SDS011;65284;51.040;13.722;2023-04-08T11:03:32;13.02;;;6.53;;
76447;SDS011;65284;51.040;13.722;2023-04-08T11:06:00;13.45;;;6.13;;
76447;SDS011;65284;51.040;13.722;2023-04-08T11:08:30;13.70;;;6.30;;
76447;SDS011;65284;51.040;13.722;2023-04-08T11:10:58;14.02;;;6.70;;
76447;SDS011;65284;51.040;13.722;2023-04-08T11:13:26;12.80;;;6.40;;
76447;SDS011;65284;51.040;13.722;2023-04-08T11:15:54;14.32;;;6.78;;
76447;SDS011;65284;51.040;13.722;2023-04-08T11:18:21;12.70;;;6.10;;
76447;SDS011;65284;51.040;13.722;2023-04-08T11:20:51;13.48;;;6.80;;
76447;SDS011;65284;51.040;13.722;2023-04-08T11:23:18;15.15;;;7.03;;
76447;SDS011;65284;51.040;13.722;2023-04-08T11:25:45;15.65;;;7.43;;
76447;SDS011;65284;51.040;13.722;2023-04-08T11:28:13;16.83;;;8.88;;
76447;SDS011;65284;51.040;13.722;2023-04-08T11:30:40;15.63;;;8.32;;
76447;SDS011;65284;51.040;13.722;2023-04-08T11:33:07;18.48;;;8.68;;
76447;SDS011;65284;51.040;13.722;2023-04-08T11:35:34;18.27;;;8.90;;
76447;SDS011;65284;51.040;13.722;2023-04-08T11:38:04;18.33;;;8.90;;
76447;SDS011;65284;51.040;13.722;2023-04-08T11:40:31;22.25;;;9.45;;
76447;SDS011;65284;51.040;13.722;2023-04-08T11:42:57;19.77;;;9.55;;
76447;SDS011;65284;51.040;13.722;2023-04-08T11:45:23;21.73;;;9.73;;
76447;SDS011;65284;51.040;13.722;2023-04-08T11:47:51;21.80;;;11.13;;
76447;SDS011;65284;51.040;13.722;2023-04-08T11:50:24;22.83;;;11.52;;
76447;SDS011;65284;51.040;13.722;2023-04-08T11:52:51;23.88;;;10.82;;
76447;SDS011;65284;51.040;13.722;2023-04-08T11:55:25;22.63;;;11.07;;
76447;SDS011;65284;51.040;13.722;2023-04-08T11:57:53;25.13;;;12.18;;
76447;SDS011;65284;51.040;13.722;2023-04-08T12:00:21;24.35;;;11.32;;
76447;SDS011;65284;51.040;13.722;2023-04-08T12:02:49;23.50;;;11.75;;
76447;SDS011;65284;51.040;13.722;2023-04-08T12:05:17;52.42;;;25.38;;
76447;SDS011;65284;51.040;13.722;2023-04-08T12:07:43;24.05;;;11.80;;
76447;SDS011;65284;51.040;13.722;2023-04-08T12:10:10;23.98;;;11.55;;
76447;SDS011;65284;51.040;13.722;2023-04-08T12:12:37;23.67;;;11.88;;
76447;SDS011;65284;51.040;13.722;2023-04-08T12:15:04;21.35;;;10.75;;
76447;SDS011;65284;51.040;13.722;2023-04-08T12:17:33;24.08;;;11.20;;
76447;SDS011;65284;51.040;13.722;2023-04-08T12:20:00;23.48;;;11.25;;
76447;SDS011;65284;51.040;13.722;2023-04-08T12:22:26;25.05;;;12.13;;
76447;SDS011;65284;51.040;13.722;2023-04-08T12:24:53;23.83;;;11.23;;
76447;SDS011;65284;51.040;13.722;2023-04-08T12:27:19;24.15;;;10.98;;
76447;SDS011;65284;51.040;13.722;2023-04-08T12:29:46;27.20;;;11.80;;
76447;SDS011;65284;51.040;13.722;2023-04-08T12:32:14;26.35;;;12.60;;
76447;SDS011;65284;51.040;13.722;2023-04-08T12:34:41;30.38;;;13.30;;
76447;SDS011;65284;51.040;13.722;2023-04-08T12:37:07;28.13;;;13.50;;
76447;SDS011;65284;51.040;13.722;2023-04-08T12:39:34;30.48;;;13.80;;
76447;SDS011;65284;51.040;13.722;2023-04-08T12:42:00;31.67;;;13.93;;
76447;SDS011;65284;51.040;13.722;2023-04-08T12:44:27;32.10;;;14.15;;
76447;SDS011;65284;51.040;13.722;2023-04-08T12:46:53;26.60;;;12.90;;
76447;SDS011;65284;51.040;13.722;2023-04-08T12:49:20;27.35;;;12.95;;
76447;SDS011;65284;51.040;13.722;2023-04-08T12:51:48;28.92;;;13.23;;
76447;SDS011;65284;51.040;13.722;2023-04-08T12:54:15;28.45;;;13.50;;
76447;SDS011;65284;51.040;13.722;2023-04-08T12:56:41;29.38;;;13.80;;
76447;SDS011;65284;51.040;13.722;2023-04-08T12:59:08;26.90;;;12.75;;
76447;SDS011;65284;51.040;13.722;2023-04-08T13:01:35;29.08;;;13.45;;
76447;SDS011;65284;51.040;13.722;2023-04-08T13:04:02;27.15;;;13.52;;
76447;SDS011;65284;51.040;13.722;2023-04-08T13:06:28;27.67;;;13.00;;
76447;SDS011;65284;51.040;13.722;2023-04-08T13:08:55;27.25;;;13.70;;
76447;SDS011;65284;51.040;13.722;2023-04-08T13:11:21;28.98;;;13.93;;
76447;SDS011;65284;51.040;13.722;2023-04-08T13:13:48;29.35;;;12.82;;
76447;SDS011;65284;51.040;13.722;2023-04-08T13:16:14;47.03;;;21.58;;
76447;SDS011;65284;51.040;13.722;2023-04-08T13:18:41;27.48;;;13.38;;
76447;SDS011;65284;51.040;13.722;2023-04-08T13:21:08;24.63;;;11.93;;
76447;SDS011;65284;51.040;13.722;2023-04-08T13:23:35;23.88;;;11.88;;
76447;SDS011;65284;51.040;13.722;2023-04-08T13:26:01;24.98;;;11.27;;
76447;SDS011;65284;51.040;13.722;2023-04-08T13:28:28;23.17;;;11.20;;
76447;SDS011;65284;51.040;13.722;2023-04-08T13:30:54;22.80;;;10.70;;
76447;SDS011;65284;51.040;13.722;2023-04-08T13:33:21;23.55;;;11.40;;
76447;SDS011;65284;51.040;13.722;2023-04-08T13:35:48;21.75;;;10.55;;
76447;SDS011;65284;51.040;13.722;2023-04-08T13:38:14;26.45;;;11.90;;
76447;SDS011;65284;51.040;13.722;2023-04-08T13:40:40;23.50;;;11.18;;
76447;SDS011;65284;51.040;13.722;2023-04-08T13:43:07;22.48;;;10.50;;
76447;SDS011;65284;51.040;13.722;2023-04-08T13:45:33;21.98;;;10.10;;
76447;SDS011;65284;51.040;13.722;2023-04-08T13:48:00;20.55;;;10.80;;
76447;SDS011;65284;51.040;13.722;2023-04-08T13:50:27;23.00;;;10.52;;
76447;SDS011;65284;51.040;13.722;2023-04-08T13:52:53;19.30;;;10.02;;
76447;SDS011;65284;51.040;13.722;2023-04-08T13:55:19;46.22;;;21.10;;
76447;SDS011;65284;51.040;13.722;2023-04-08T13:57:46;24.73;;;11.38;;
76447;SDS011;65284;51.040;13.722;2023-04-08T14:00:12;20.52;;;9.40;;
76447;SDS011;65284;51.040;13.722;2023-04-08T14:02:39;19.60;;;9.25;;
76447;SDS011;65284;51.040;13.722;2023-04-08T14:05:06;21.75;;;10.68;;
76447;SDS011;65284;51.040;13.722;2023-04-08T14:07:32;21.20;;;10.60;;
76447;SDS011;65284;51.040;13.722;2023-04-08T14:09:58;18.00;;;9.68;;
76447;SDS011;65284;51.040;13.722;2023-04-08T14:12:25;21.90;;;10.40;;
76447;SDS011;65284;51.040;13.722;2023-04-08T14:14:51;19.48;;;9.60;;
76447;SDS011;65284;51.040;13.722;2023-04-08T14:17:18;21.38;;;10.73;;
76447;SDS011;65284;51.040;13.722;2023-04-08T14:19:44;22.00;;;10.55;;
76447;SDS011;65284;51.040;13.722;2023-04-08T14:22:11;20.73;;;10.70;;
76447;SDS011;65284;51.040;13.722;2023-04-08T14:24:37;20.95;;;10.75;;
76447;SDS011;65284;51.040;13.722;2023-04-08T14:27:04;21.23;;;10.93;;
76447;SDS011;65284;51.040;13.722;2023-04-08T14:29:30;22.23;;;10.00;;
76447;SDS011;65284;51.040;13.722;2023-04-08T14:31:57;20.50;;;9.88;;
76447;SDS011;65284;51.040;13.722;2023-04-08T14:34:23;20.73;;;10.13;;
76447;SDS011;65284;51.040;13.722;2023-04-08T14:36:50;20.13;;;9.63;;
76447;SDS011;65284;51.040;13.722;2023-04-08T14:39:16;22.45;;;9.77;;
76447;SDS011;65284;51.040;13.722;2023-04-08T14:41:43;20.92;;;9.68;;
76447;SDS011;65284;51.040;13.722;2023-04-08T14:44:11;19.85;;;9.10;;